Independent — WDJ441 — position and weather

sailwx.info

Track history (hours):
 
Tides and Currents Weather Stations Pressure Air Temp Water Temp Dewpoint Dewpoint Depression Visibility Wind Speed Wind Dir Waves Ship Positions

Independent

Last reported at 2017-Oct-20 16:00 UTC. Time now 2017-Oct-20 16:31 UTC.
Position N 27°48' W 082°27'.

Length 28 m; draft 5 m.

Type: Tug. MMSI: 367777460.

Date/timePositionNaut miles runAvg speedWind from/ knotsBaromVisibWave heightAir tempDewpointWater temp
2017-Oct-20 16:00N 27°48' W 082°27'510.6
2017-Oct-20 15:30N 27°47' W 082°33'4 8.4
2017-Oct-20 15:00N 27°51' W 082°33'0 0.2
2017-Oct-20 14:00N 27°51' W 082°33'4 8.0
2017-Oct-20 13:30N 27°47' W 082°33'510.2
2017-Oct-20 13:00N 27°48' W 082°28'510.3
2017-Oct-20 12:31N 27°53' W 082°26'3 5.3
2017-Oct-20 12:00N 27°56' W 082°26'0 0.0
2017-Oct-20 11:30N 27°56' W 082°26'0 0.0
2017-Oct-20 11:00N 27°56' W 082°26'0 0.0
2017-Oct-20 10:30N 27°56' W 082°26'0 0.0
2017-Oct-20 10:00N 27°56' W 082°26'0 0.0
2017-Oct-20 09:30N 27°56' W 082°26'0 0.0
2017-Oct-20 09:00N 27°56' W 082°26'0 0.0
2017-Oct-20 08:30N 27°56' W 082°26'0 0.0
2017-Oct-20 08:00N 27°56' W 082°26'0 0.0
2017-Oct-20 07:30N 27°56' W 082°26'0 0.0
2017-Oct-20 07:00N 27°56' W 082°26'0 0.0
2017-Oct-20 06:30N 27°56' W 082°26'0 0.0
2017-Oct-20 06:00N 27°56' W 082°26'1 1.4
2017-Oct-20 05:31N 27°55' W 082°26'1 2.4
2017-Oct-20 05:00N 27°54' W 082°26'0 0.0
2017-Oct-20 04:30N 27°54' W 082°26'1 2.7
2017-Oct-20 04:00N 27°53' W 082°26'2 3.7
2017-Oct-20 03:30N 27°55' W 082°26'0 0.0
2017-Oct-20 03:00N 27°55' W 082°26'0 0.0
2017-Oct-20 02:30N 27°55' W 082°26'0 0.0
2017-Oct-20 02:00N 27°55' W 082°26'0 0.0
2017-Oct-20 01:30N 27°55' W 082°26'0 0.0
2017-Oct-20 01:00N 27°55' W 082°26'0 0.0
2017-Oct-20 00:30N 27°55' W 082°26'0 0.0
2017-Oct-20 00:00N 27°55' W 082°26'0 0.0
2017-Oct-19 23:30N 27°55' W 082°26'0 0.0
2017-Oct-19 23:01N 27°55' W 082°26'0 0.9
2017-Oct-19 22:30N 27°55' W 082°26'2 3.3
2017-Oct-19 22:00N 27°54' W 082°26'1 1.4
2017-Oct-19 21:31N 27°53' W 082°27'3 6.0
2017-Oct-19 21:01N 27°56' W 082°26'0 0.1
2017-Oct-19 20:30N 27°56' W 082°26'0 0.0
2017-Oct-19 20:00N 27°56' W 082°26'0 0.0
2017-Oct-19 19:30N 27°56' W 082°26'0 0.0
2017-Oct-19 19:00N 27°56' W 082°26'0 0.0
2017-Oct-19 18:30N 27°56' W 082°26'0 0.0
2017-Oct-19 18:00N 27°56' W 082°26'0 0.0
2017-Oct-19 17:30N 27°56' W 082°26'0 0.0
2017-Oct-19 17:00N 27°56' W 082°26'0 0.0
2017-Oct-19 16:30N 27°56' W 082°26'0 0.0
2017-Oct-19 16:00N 27°56' W 082°26'0 0.0
2017-Oct-19 15:30N 27°56' W 082°26'0 0.0
2017-Oct-19 15:00N 27°56' W 082°26'0 0.0
2017-Oct-19 14:30N 27°56' W 082°26'0 0.0
2017-Oct-19 14:00N 27°56' W 082°26'0 0.0
2017-Oct-19 13:30N 27°56' W 082°26'0 0.0
2017-Oct-19 13:00N 27°56' W 082°26'0 0.0
2017-Oct-19 12:30N 27°56' W 082°26'0 0.0
2017-Oct-19 12:00N 27°56' W 082°26'0 0.0
2017-Oct-19 11:30N 27°56' W 082°26'0 0.0
2017-Oct-19 11:00N 27°56' W 082°26'0 0.0
2017-Oct-19 10:30N 27°56' W 082°26'0 0.0
2017-Oct-19 10:00N 27°56' W 082°26'0 0.0
2017-Oct-19 09:30N 27°56' W 082°26'0 0.0
2017-Oct-19 09:00N 27°56' W 082°26'0 0.0
2017-Oct-19 08:30N 27°56' W 082°26'0 0.0
2017-Oct-19 08:00N 27°56' W 082°26'0 0.0
2017-Oct-19 07:30N 27°56' W 082°26'0 0.0
2017-Oct-19 07:00N 27°56' W 082°26'0 0.0
2017-Oct-19 06:30N 27°56' W 082°26'0 0.0
2017-Oct-19 06:00N 27°56' W 082°26'0 0.0
2017-Oct-19 05:30N 27°56' W 082°26'0 0.0
2017-Oct-19 05:00N 27°56' W 082°26'0 0.0
2017-Oct-19 04:30N 27°56' W 082°26'0 0.0
2017-Oct-19 04:00N 27°56' W 082°26'0 0.0
2017-Oct-19 03:30N 27°56' W 082°26'0 0.0
2017-Oct-19 03:00N 27°56' W 082°26'0 0.0
2017-Oct-19 02:30N 27°56' W 082°26'0 0.0
2017-Oct-19 02:00N 27°56' W 082°26'0 0.0
2017-Oct-19 01:30N 27°56' W 082°26'0 0.0
2017-Oct-19 01:00N 27°56' W 082°26'0 0.0
2017-Oct-19 00:30N 27°56' W 082°26'0 0.0
2017-Oct-19 00:00N 27°56' W 082°26'0 0.0
2017-Oct-18 23:30N 27°56' W 082°26'0 0.0
2017-Oct-18 23:00N 27°56' W 082°26'0 0.0
2017-Oct-18 22:30N 27°56' W 082°26'0 0.0
2017-Oct-18 22:00N 27°56' W 082°26'0 0.0
2017-Oct-18 21:30N 27°56' W 082°26'0 0.0
2017-Oct-18 21:00N 27°56' W 082°26'0 0.0
2017-Oct-18 20:30N 27°56' W 082°26'4 8.5
2017-Oct-18 20:01N 27°52' W 082°27'3 5.3
2017-Oct-18 19:30N 27°51' W 082°23'0 0.3
2017-Oct-18 19:00N 27°51' W 082°24'3 5.6
2017-Oct-18 18:30N 27°51' W 082°27'3 6.9
2017-Oct-18 18:01N 27°54' W 082°26'2 3.3
2017-Oct-18 17:30N 27°56' W 082°26'2 3.2
2017-Oct-18 17:00N 27°54' W 082°26'611.3
2017-Oct-18 16:30N 27°49' W 082°26'1 2.9
2017-Oct-18 16:00N 27°48' W 082°25'0 0.7
2017-Oct-18 15:31N 27°48' W 082°25'2 3.8
2017-Oct-18 15:00N 27°49' W 082°27'2 2.1
2017-Oct-18 14:00N 27°48' W 082°25'1 2.8
2017-Oct-18 13:30N 27°49' W 082°26'5 9.4
2017-Oct-18 13:00N 27°53' W 082°26'3 6.6
2017-Oct-18 12:31N 27°57' W 082°27'1 1.2
2017-Oct-18 12:01N 27°57' W 082°27'0 0.8
2017-Oct-18 11:31N 27°57' W 082°27'0 0.6
2017-Oct-18 11:00N 27°57' W 082°27'2 4.0
2017-Oct-18 10:31N 27°55' W 082°26'1 2.8
2017-Oct-18 10:01N 27°53' W 082°26'3 5.7
2017-Oct-18 09:31N 27°56' W 082°26'0 0.0
2017-Oct-18 09:00N 27°56' W 082°26'0 0.0
2017-Oct-18 08:31N 27°56' W 082°26'0 0.0
2017-Oct-18 08:01N 27°56' W 082°26'0 0.0
2017-Oct-18 07:30N 27°56' W 082°26'0 0.0
2017-Oct-18 07:00N 27°56' W 082°26'0 0.0
2017-Oct-18 06:31N 27°56' W 082°26'0 0.0
2017-Oct-18 06:01N 27°56' W 082°26'0 0.0
2017-Oct-18 05:31N 27°56' W 082°26'0 0.0
2017-Oct-18 05:01N 27°56' W 082°26'0 0.0
2017-Oct-18 04:30N 27°56' W 082°26'0 0.0
2017-Oct-18 04:00N 27°56' W 082°26'0 0.0
2017-Oct-18 03:31N 27°56' W 082°26'0 0.0
2017-Oct-18 03:01N 27°56' W 082°26'0 0.0
2017-Oct-18 02:30N 27°56' W 082°26'0 0.0
2017-Oct-18 02:01N 27°56' W 082°26'0 0.0
2017-Oct-18 01:31N 27°56' W 082°26'0 0.5
2017-Oct-18 01:01N 27°56' W 082°26'1 1.8
2017-Oct-18 00:31N 27°55' W 082°27'1 1.9
2017-Oct-18 00:01N 27°54' W 082°26'2 3.2
2017-Oct-17 23:31N 27°56' W 082°26'0 0.0
2017-Oct-17 23:01N 27°56' W 082°26'0 0.0
2017-Oct-17 22:31N 27°56' W 082°26'0 0.0
2017-Oct-17 22:01N 27°56' W 082°26'1 1.9
2017-Oct-17 21:30N 27°55' W 082°26'1 2.0
2017-Oct-17 21:01N 27°54' W 082°26'2 3.6
2017-Oct-17 20:31N 27°56' W 082°26'0 0.0
2017-Oct-17 20:01N 27°56' W 082°26'0 0.0
2017-Oct-17 19:31N 27°56' W 082°26'0 0.0
2017-Oct-17 19:01N 27°56' W 082°26'0 0.0
2017-Oct-17 18:30N 27°56' W 082°26'1 2.2
2017-Oct-17 18:01N 27°55' W 082°26'1 2.0
2017-Oct-17 17:31N 27°56' W 082°26'0 0.0
2017-Oct-17 17:00N 27°56' W 082°26'0 0.2
2017-Oct-17 16:30N 27°56' W 082°26'0 0.0
2017-Oct-17 16:01N 27°56' W 082°26'0 0.0
2017-Oct-17 15:31N 27°56' W 082°26'2 3.2
2017-Oct-17 15:00N 27°54' W 082°26'4 7.1
2017-Oct-17 14:31N 27°51' W 082°24'1 1.5
2017-Oct-17 13:58N 27°51' W 082°24'0 0.1
2017-Oct-17 13:30N 27°51' W 082°24'2 4.4
2017-Oct-17 13:00N 27°51' W 082°26'2 4.6
2017-Oct-17 12:31N 27°49' W 082°26'1 2.7
2017-Oct-17 12:00N 27°48' W 082°25'1 0.6
2017-Oct-17 11:10N 27°48' W 082°24'0 0.0
2017-Oct-17 11:00N 27°48' W 082°24'0 0.9
2017-Oct-17 10:30N 27°48' W 082°25'0 0.9
2017-Oct-17 09:59N 27°48' W 082°24'0 0.0
2017-Oct-17 09:29N 27°48' W 082°24'0 0.0
2017-Oct-17 09:00N 27°48' W 082°24'0 0.0
2017-Oct-17 08:30N 27°48' W 082°24'0 0.0
2017-Oct-17 08:01N 27°48' W 082°24'1 1.8
2017-Oct-17 07:30N 27°48' W 082°25'611.3
2017-Oct-17 07:01N 27°47' W 082°31'9 4.6
2017-Oct-17 05:06N 27°38' W 082°34'3 0.3
2017-Oct-16 18:45N 27°41' W 082°34'210.2
2017-Oct-16 18:31N 27°43' W 082°32'5 9.6
2017-Oct-16 18:01N 27°47' W 082°30'4 8.9
2017-Oct-16 17:31N 27°50' W 082°27'4 8.5
2017-Oct-16 17:01N 27°55' W 082°26'0 0.4
2017-Oct-16 16:31N 27°54' W 082°26'0 0.4
2017-Oct-16 16:01N 27°54' W 082°25'1 1.5
2017-Oct-16 15:31N 27°55' W 082°26'  
2017-Oct-13 20:53N 27°56' W 082°27'0 0.0
2017-Oct-13 20:31N 27°56' W 082°27'0 0.0
2017-Oct-13 20:00N 27°56' W 082°27'0 0.0
2017-Oct-13 19:30N 27°56' W 082°27'1 3.0
2017-Oct-13 19:00N 27°55' W 082°27'1 1.1
2017-Oct-13 18:31N 27°54' W 082°26'1 2.5
2017-Oct-13 18:00N 27°53' W 082°26'2 3.0
2017-Oct-13 17:31N 27°55' W 082°26'0 0.0
2017-Oct-13 17:00N 27°55' W 082°26'0 0.0
2017-Oct-13 16:31N 27°55' W 082°26'0 0.0
2017-Oct-13 16:01N 27°55' W 082°26'0 0.5
2017-Oct-13 15:31N 27°54' W 082°26'1 2.7
2017-Oct-13 15:01N 27°55' W 082°26'0 1.0
2017-Oct-13 14:31N 27°55' W 082°25'1 2.2
2017-Oct-13 14:01N 27°54' W 082°26'3 6.9
2017-Oct-13 13:31N 27°51' W 082°27'2 3.5
2017-Oct-13 13:01N 27°51' W 082°25'1 2.1
2017-Oct-13 12:31N 27°51' W 082°24'0 0.1
2017-Oct-13 11:58N 27°51' W 082°24'0 0.9
2017-Oct-13 11:30N 27°51' W 082°24'4 7.1
2017-Oct-13 11:01N 27°54' W 082°26'2 3.7
2017-Oct-13 10:31N 27°56' W 082°26'0 0.0
2017-Oct-13 10:01N 27°56' W 082°26'0 0.0
2017-Oct-13 09:31N 27°56' W 082°26'0 0.0
2017-Oct-13 09:01N 27°56' W 082°26'0 0.0
2017-Oct-13 08:30N 27°56' W 082°26'0 0.0
2017-Oct-13 08:00N 27°56' W 082°26'0 0.0
2017-Oct-13 07:31N 27°56' W 082°26'0 0.0
2017-Oct-13 07:01N 27°56' W 082°26'0 0.0
2017-Oct-13 06:31N 27°56' W 082°26'0 0.0
2017-Oct-13 06:00N 27°56' W 082°26'0 0.0
2017-Oct-13 05:31N 27°56' W 082°26'0 0.0
2017-Oct-13 05:00N 27°56' W 082°26'0 0.0
2017-Oct-13 04:31N 27°56' W 082°26'0 0.0
2017-Oct-13 04:01N 27°56' W 082°26'0 0.0
2017-Oct-13 03:30N 27°56' W 082°26'0 0.0
2017-Oct-13 03:01N 27°56' W 082°26'0 0.0
2017-Oct-13 02:31N 27°56' W 082°26'0 0.0
2017-Oct-13 02:00N 27°56' W 082°26'0 0.0
2017-Oct-13 01:30N 27°56' W 082°26'0 0.0
2017-Oct-13 01:01N 27°56' W 082°26'0 0.0
2017-Oct-13 00:31N 27°56' W 082°26'0 0.0
2017-Oct-13 00:01N 27°56' W 082°26'0 0.0
2017-Oct-12 23:30N 27°56' W 082°26'0 0.0
2017-Oct-12 23:00N 27°56' W 082°26'1 2.2
2017-Oct-12 22:30N 27°55' W 082°27'0 0.0
2017-Oct-12 22:01N 27°55' W 082°27'0 0.1
2017-Oct-12 21:31N 27°55' W 082°27'1 2.0
2017-Oct-12 21:01N 27°56' W 082°27'0 0.0
2017-Oct-12 20:31N 27°56' W 082°27'1 1.1
2017-Oct-12 20:00N 27°55' W 082°27'2 4.7
2017-Oct-12 19:31N 27°53' W 082°26'1 2.3
2017-Oct-12 19:01N 27°54' W 082°26'2 3.5
2017-Oct-12 18:31N 27°56' W 082°26'0 0.0
2017-Oct-12 18:01N 27°56' W 082°26'0 0.0
2017-Oct-12 17:30N 27°56' W 082°26'0 0.0
2017-Oct-12 17:01N 27°56' W 082°26'0 0.0
2017-Oct-12 16:31N 27°56' W 082°26'0 0.0
2017-Oct-12 16:00N 27°56' W 082°26'0 0.0
2017-Oct-12 15:31N 27°56' W 082°26'0 0.0
2017-Oct-12 15:01N 27°56' W 082°26'0 0.0
2017-Oct-12 14:31N 27°56' W 082°26'0 0.0
2017-Oct-12 14:01N 27°56' W 082°26'0 0.0
2017-Oct-12 13:30N 27°56' W 082°26'0 0.0
2017-Oct-12 13:00N 27°56' W 082°26'0 0.0
2017-Oct-12 12:31N 27°56' W 082°26'0 0.0
2017-Oct-12 12:00N 27°56' W 082°26'0 0.0
2017-Oct-12 11:31N 27°56' W 082°26'0 0.0
2017-Oct-12 11:00N 27°56' W 082°26'0 0.0
2017-Oct-12 10:31N 27°56' W 082°26'0 0.0
2017-Oct-12 10:00N 27°56' W 082°26'0 0.0
2017-Oct-12 09:30N 27°56' W 082°26'0 0.0
2017-Oct-12 09:00N 27°56' W 082°26'0 0.0
2017-Oct-12 08:30N 27°56' W 082°26'0 0.0
2017-Oct-12 08:01N 27°56' W 082°26'0 0.0
2017-Oct-12 07:31N 27°56' W 082°26'0 0.0
2017-Oct-12 07:01N 27°56' W 082°26'0 0.0
2017-Oct-12 06:31N 27°56' W 082°26'0 0.0
2017-Oct-12 06:01N 27°56' W 082°26'0 0.0
2017-Oct-12 05:31N 27°56' W 082°26'0 0.0
2017-Oct-12 05:00N 27°56' W 082°26'0 0.0
2017-Oct-12 04:31N 27°56' W 082°26'0 0.0
2017-Oct-12 04:00N 27°56' W 082°26'0 0.0
2017-Oct-12 03:31N 27°56' W 082°26'0 0.0
2017-Oct-12 03:01N 27°56' W 082°26'0 0.0
2017-Oct-12 02:31N 27°56' W 082°26'1 2.0
2017-Oct-12 02:01N 27°55' W 082°27'0 0.4
2017-Oct-12 01:31N 27°55' W 082°27'2 3.8
2017-Oct-12 01:01N 27°53' W 082°26'3 5.4
2017-Oct-12 00:31N 27°56' W 082°26'0 1.0
2017-Oct-12 00:01N 27°56' W 082°26'0 0.0
2017-Oct-11 23:31N 27°56' W 082°26'0 0.0
2017-Oct-11 23:00N 27°56' W 082°26'0 0.0
2017-Oct-11 22:30N 27°56' W 082°26'0 0.0
2017-Oct-11 22:01N 27°56' W 082°26'0 0.0
2017-Oct-11 21:31N 27°56' W 082°26'0 0.0
2017-Oct-11 21:01N 27°56' W 082°26'0 0.0
2017-Oct-11 20:31N 27°56' W 082°26'0 0.0
2017-Oct-11 20:01N 27°56' W 082°26'0 0.0
2017-Oct-11 19:31N 27°56' W 082°26'0 0.0
2017-Oct-11 19:00N 27°56' W 082°26'0 0.0
2017-Oct-11 18:31N 27°56' W 082°26'0 0.0
2017-Oct-11 18:01N 27°56' W 082°26'0 0.0
2017-Oct-11 17:31N 27°56' W 082°26'0 0.0
2017-Oct-11 17:00N 27°56' W 082°26'9 0.5
2017-Oct-11 00:00N 27°51' W 082°34'4 8.5
2017-Oct-10 23:31N 27°47' W 082°31'510.3
2017-Oct-10 23:00N 27°51' W 082°27'510.6
2017-Oct-10 22:31N 27°56' W 082°26'0 0.5
2017-Oct-10 22:01N 27°56' W 082°26'0 0.0
2017-Oct-10 21:31N 27°56' W 082°26'0 0.0
2017-Oct-10 21:01N 27°56' W 082°26'0 0.0
2017-Oct-10 20:30N 27°56' W 082°26'0 0.0
2017-Oct-10 20:01N 27°56' W 082°26'0 0.0
2017-Oct-10 19:31N 27°56' W 082°26'0 0.0
2017-Oct-10 19:01N 27°56' W 082°26'0 0.0
2017-Oct-10 18:31N 27°56' W 082°26'0 0.0
2017-Oct-10 18:01N 27°56' W 082°26'0 0.0
2017-Oct-10 17:30N 27°56' W 082°26'0 0.0
2017-Oct-10 17:01N 27°56' W 082°26'0 0.0
2017-Oct-10 16:31N 27°56' W 082°26'  
Track history (hours):
 
Tides and Currents Weather Stations Pressure Air Temp Water Temp Dewpoint Dewpoint Depression Visibility Wind Speed Wind Dir Waves Ship Positions

Independent

Last reported at 2017-Oct-20 16:00 UTC. Time now 2017-Oct-20 16:31 UTC.
Position N 27°48' W 082°27'.

Length 28 m; draft 5 m.

Type: Tug. MMSI: 367777460.

Date/timePositionNaut miles runAvg speedWind from/ knotsBaromVisibWave heightAir tempDewpointWater temp
2017-Oct-20 16:00N 27°48' W 082°27'510.6
2017-Oct-20 15:30N 27°47' W 082°33'4 8.4
2017-Oct-20 15:00N 27°51' W 082°33'0 0.2
2017-Oct-20 14:00N 27°51' W 082°33'4 8.0
2017-Oct-20 13:30N 27°47' W 082°33'510.2
2017-Oct-20 13:00N 27°48' W 082°28'510.3
2017-Oct-20 12:31N 27°53' W 082°26'3 5.3
2017-Oct-20 12:00N 27°56' W 082°26'0 0.0
2017-Oct-20 11:30N 27°56' W 082°26'0 0.0
2017-Oct-20 11:00N 27°56' W 082°26'0 0.0
2017-Oct-20 10:30N 27°56' W 082°26'0 0.0
2017-Oct-20 10:00N 27°56' W 082°26'0 0.0
2017-Oct-20 09:30N 27°56' W 082°26'0 0.0
2017-Oct-20 09:00N 27°56' W 082°26'0 0.0
2017-Oct-20 08:30N 27°56' W 082°26'0 0.0
2017-Oct-20 08:00N 27°56' W 082°26'0 0.0
2017-Oct-20 07:30N 27°56' W 082°26'0 0.0
2017-Oct-20 07:00N 27°56' W 082°26'0 0.0
2017-Oct-20 06:30N 27°56' W 082°26'0 0.0
2017-Oct-20 06:00N 27°56' W 082°26'1 1.4
2017-Oct-20 05:31N 27°55' W 082°26'1 2.4
2017-Oct-20 05:00N 27°54' W 082°26'0 0.0
2017-Oct-20 04:30N 27°54' W 082°26'1 2.7
2017-Oct-20 04:00N 27°53' W 082°26'2 3.7
2017-Oct-20 03:30N 27°55' W 082°26'0 0.0
2017-Oct-20 03:00N 27°55' W 082°26'0 0.0
2017-Oct-20 02:30N 27°55' W 082°26'0 0.0
2017-Oct-20 02:00N 27°55' W 082°26'0 0.0
2017-Oct-20 01:30N 27°55' W 082°26'0 0.0
2017-Oct-20 01:00N 27°55' W 082°26'0 0.0
2017-Oct-20 00:30N 27°55' W 082°26'0 0.0
2017-Oct-20 00:00N 27°55' W 082°26'0 0.0
2017-Oct-19 23:30N 27°55' W 082°26'0 0.0
2017-Oct-19 23:01N 27°55' W 082°26'0 0.9
2017-Oct-19 22:30N 27°55' W 082°26'2 3.3
2017-Oct-19 22:00N 27°54' W 082°26'1 1.4
2017-Oct-19 21:31N 27°53' W 082°27'3 6.0
2017-Oct-19 21:01N 27°56' W 082°26'0 0.1
2017-Oct-19 20:30N 27°56' W 082°26'0 0.0
2017-Oct-19 20:00N 27°56' W 082°26'0 0.0
2017-Oct-19 19:30N 27°56' W 082°26'0 0.0
2017-Oct-19 19:00N 27°56' W 082°26'0 0.0
2017-Oct-19 18:30N 27°56' W 082°26'0 0.0
2017-Oct-19 18:00N 27°56' W 082°26'0 0.0
2017-Oct-19 17:30N 27°56' W 082°26'0 0.0
2017-Oct-19 17:00N 27°56' W 082°26'0 0.0
2017-Oct-19 16:30N 27°56' W 082°26'0 0.0
2017-Oct-19 16:00N 27°56' W 082°26'0 0.0
2017-Oct-19 15:30N 27°56' W 082°26'0 0.0
2017-Oct-19 15:00N 27°56' W 082°26'0 0.0
2017-Oct-19 14:30N 27°56' W 082°26'0 0.0
2017-Oct-19 14:00N 27°56' W 082°26'0 0.0
2017-Oct-19 13:30N 27°56' W 082°26'0 0.0
2017-Oct-19 13:00N 27°56' W 082°26'0 0.0
2017-Oct-19 12:30N 27°56' W 082°26'0 0.0
2017-Oct-19 12:00N 27°56' W 082°26'0 0.0
2017-Oct-19 11:30N 27°56' W 082°26'0 0.0
2017-Oct-19 11:00N 27°56' W 082°26'0 0.0
2017-Oct-19 10:30N 27°56' W 082°26'0 0.0
2017-Oct-19 10:00N 27°56' W 082°26'0 0.0
2017-Oct-19 09:30N 27°56' W 082°26'0 0.0
2017-Oct-19 09:00N 27°56' W 082°26'0 0.0
2017-Oct-19 08:30N 27°56' W 082°26'0 0.0
2017-Oct-19 08:00N 27°56' W 082°26'0 0.0
2017-Oct-19 07:30N 27°56' W 082°26'0 0.0
2017-Oct-19 07:00N 27°56' W 082°26'0 0.0
2017-Oct-19 06:30N 27°56' W 082°26'0 0.0
2017-Oct-19 06:00N 27°56' W 082°26'0 0.0
2017-Oct-19 05:30N 27°56' W 082°26'0 0.0
2017-Oct-19 05:00N 27°56' W 082°26'0 0.0
2017-Oct-19 04:30N 27°56' W 082°26'0 0.0
2017-Oct-19 04:00N 27°56' W 082°26'0 0.0
2017-Oct-19 03:30N 27°56' W 082°26'0 0.0
2017-Oct-19 03:00N 27°56' W 082°26'0 0.0
2017-Oct-19 02:30N 27°56' W 082°26'0 0.0
2017-Oct-19 02:00N 27°56' W 082°26'0 0.0
2017-Oct-19 01:30N 27°56' W 082°26'0 0.0
2017-Oct-19 01:00N 27°56' W 082°26'0 0.0
2017-Oct-19 00:30N 27°56' W 082°26'0 0.0
2017-Oct-19 00:00N 27°56' W 082°26'0 0.0
2017-Oct-18 23:30N 27°56' W 082°26'0 0.0
2017-Oct-18 23:00N 27°56' W 082°26'0 0.0
2017-Oct-18 22:30N 27°56' W 082°26'0 0.0
2017-Oct-18 22:00N 27°56' W 082°26'0 0.0
2017-Oct-18 21:30N 27°56' W 082°26'0 0.0
2017-Oct-18 21:00N 27°56' W 082°26'0 0.0
2017-Oct-18 20:30N 27°56' W 082°26'4 8.5
2017-Oct-18 20:01N 27°52' W 082°27'3 5.3
2017-Oct-18 19:30N 27°51' W 082°23'0 0.3
2017-Oct-18 19:00N 27°51' W 082°24'3 5.6
2017-Oct-18 18:30N 27°51' W 082°27'3 6.9
2017-Oct-18 18:01N 27°54' W 082°26'2 3.3
2017-Oct-18 17:30N 27°56' W 082°26'2 3.2
2017-Oct-18 17:00N 27°54' W 082°26'611.3
2017-Oct-18 16:30N 27°49' W 082°26'1 2.9
2017-Oct-18 16:00N 27°48' W 082°25'0 0.7
2017-Oct-18 15:31N 27°48' W 082°25'2 3.8
2017-Oct-18 15:00N 27°49' W 082°27'2 2.1
2017-Oct-18 14:00N 27°48' W 082°25'1 2.8
2017-Oct-18 13:30N 27°49' W 082°26'5 9.4
2017-Oct-18 13:00N 27°53' W 082°26'3 6.6
2017-Oct-18 12:31N 27°57' W 082°27'1 1.2
2017-Oct-18 12:01N 27°57' W 082°27'0 0.8
2017-Oct-18 11:31N 27°57' W 082°27'0 0.6
2017-Oct-18 11:00N 27°57' W 082°27'2 4.0
2017-Oct-18 10:31N 27°55' W 082°26'1 2.8
2017-Oct-18 10:01N 27°53' W 082°26'3 5.7
2017-Oct-18 09:31N 27°56' W 082°26'0 0.0
2017-Oct-18 09:00N 27°56' W 082°26'0 0.0
2017-Oct-18 08:31N 27°56' W 082°26'0 0.0
2017-Oct-18 08:01N 27°56' W 082°26'0 0.0
2017-Oct-18 07:30N 27°56' W 082°26'0 0.0
2017-Oct-18 07:00N 27°56' W 082°26'0 0.0
2017-Oct-18 06:31N 27°56' W 082°26'0 0.0
2017-Oct-18 06:01N 27°56' W 082°26'0 0.0
2017-Oct-18 05:31N 27°56' W 082°26'0 0.0
2017-Oct-18 05:01N 27°56' W 082°26'0 0.0
2017-Oct-18 04:30N 27°56' W 082°26'0 0.0
2017-Oct-18 04:00N 27°56' W 082°26'0 0.0
2017-Oct-18 03:31N 27°56' W 082°26'0 0.0
2017-Oct-18 03:01N 27°56' W 082°26'0 0.0
2017-Oct-18 02:30N 27°56' W 082°26'0 0.0
2017-Oct-18 02:01N 27°56' W 082°26'0 0.0
2017-Oct-18 01:31N 27°56' W 082°26'0 0.5
2017-Oct-18 01:01N 27°56' W 082°26'1 1.8
2017-Oct-18 00:31N 27°55' W 082°27'1 1.9
2017-Oct-18 00:01N 27°54' W 082°26'2 3.2
2017-Oct-17 23:31N 27°56' W 082°26'0 0.0
2017-Oct-17 23:01N 27°56' W 082°26'0 0.0
2017-Oct-17 22:31N 27°56' W 082°26'0 0.0
2017-Oct-17 22:01N 27°56' W 082°26'1 1.9
2017-Oct-17 21:30N 27°55' W 082°26'1 2.0
2017-Oct-17 21:01N 27°54' W 082°26'2 3.6
2017-Oct-17 20:31N 27°56' W 082°26'0 0.0
2017-Oct-17 20:01N 27°56' W 082°26'0 0.0
2017-Oct-17 19:31N 27°56' W 082°26'0 0.0
2017-Oct-17 19:01N 27°56' W 082°26'0 0.0
2017-Oct-17 18:30N 27°56' W 082°26'1 2.2
2017-Oct-17 18:01N 27°55' W 082°26'1 2.0
2017-Oct-17 17:31N 27°56' W 082°26'0 0.0
2017-Oct-17 17:00N 27°56' W 082°26'0 0.2
2017-Oct-17 16:30N 27°56' W 082°26'0 0.0
2017-Oct-17 16:01N 27°56' W 082°26'0 0.0
2017-Oct-17 15:31N 27°56' W 082°26'2 3.2
2017-Oct-17 15:00N 27°54' W 082°26'4 7.1
2017-Oct-17 14:31N 27°51' W 082°24'1 1.5
2017-Oct-17 13:58N 27°51' W 082°24'0 0.1
2017-Oct-17 13:30N 27°51' W 082°24'2 4.4
2017-Oct-17 13:00N 27°51' W 082°26'2 4.6
2017-Oct-17 12:31N 27°49' W 082°26'1 2.7
2017-Oct-17 12:00N 27°48' W 082°25'1 0.6
2017-Oct-17 11:10N 27°48' W 082°24'0 0.0
2017-Oct-17 11:00N 27°48' W 082°24'0 0.9
2017-Oct-17 10:30N 27°48' W 082°25'0 0.9
2017-Oct-17 09:59N 27°48' W 082°24'0 0.0
2017-Oct-17 09:29N 27°48' W 082°24'0 0.0
2017-Oct-17 09:00N 27°48' W 082°24'0 0.0
2017-Oct-17 08:30N 27°48' W 082°24'0 0.0
2017-Oct-17 08:01N 27°48' W 082°24'1 1.8
2017-Oct-17 07:30N 27°48' W 082°25'611.3
2017-Oct-17 07:01N 27°47' W 082°31'9 4.6
2017-Oct-17 05:06N 27°38' W 082°34'3 0.3
2017-Oct-16 18:45N 27°41' W 082°34'210.2
2017-Oct-16 18:31N 27°43' W 082°32'5 9.6
2017-Oct-16 18:01N 27°47' W 082°30'4 8.9
2017-Oct-16 17:31N 27°50' W 082°27'4 8.5
2017-Oct-16 17:01N 27°55' W 082°26'0 0.4
2017-Oct-16 16:31N 27°54' W 082°26'0 0.4
2017-Oct-16 16:01N 27°54' W 082°25'1 1.5
2017-Oct-16 15:31N 27°55' W 082°26'  
2017-Oct-13 20:53N 27°56' W 082°27'0 0.0
2017-Oct-13 20:31N 27°56' W 082°27'0 0.0
2017-Oct-13 20:00N 27°56' W 082°27'0 0.0
2017-Oct-13 19:30N 27°56' W 082°27'1 3.0
2017-Oct-13 19:00N 27°55' W 082°27'1 1.1
2017-Oct-13 18:31N 27°54' W 082°26'1 2.5
2017-Oct-13 18:00N 27°53' W 082°26'2 3.0
2017-Oct-13 17:31N 27°55' W 082°26'0 0.0
2017-Oct-13 17:00N 27°55' W 082°26'0 0.0
2017-Oct-13 16:31N 27°55' W 082°26'0 0.0
2017-Oct-13 16:01N 27°55' W 082°26'0 0.5
2017-Oct-13 15:31N 27°54' W 082°26'1 2.7
2017-Oct-13 15:01N 27°55' W 082°26'0 1.0
2017-Oct-13 14:31N 27°55' W 082°25'1 2.2
2017-Oct-13 14:01N 27°54' W 082°26'3 6.9
2017-Oct-13 13:31N 27°51' W 082°27'2 3.5
2017-Oct-13 13:01N 27°51' W 082°25'1 2.1
2017-Oct-13 12:31N 27°51' W 082°24'0 0.1
2017-Oct-13 11:58N 27°51' W 082°24'0 0.9
2017-Oct-13 11:30N 27°51' W 082°24'4 7.1
2017-Oct-13 11:01N 27°54' W 082°26'2 3.7
2017-Oct-13 10:31N 27°56' W 082°26'0 0.0
2017-Oct-13 10:01N 27°56' W 082°26'0 0.0
2017-Oct-13 09:31N 27°56' W 082°26'0 0.0
2017-Oct-13 09:01N 27°56' W 082°26'0 0.0
2017-Oct-13 08:30N 27°56' W 082°26'0 0.0
2017-Oct-13 08:00N 27°56' W 082°26'0 0.0
2017-Oct-13 07:31N 27°56' W 082°26'0 0.0
2017-Oct-13 07:01N 27°56' W 082°26'0 0.0
2017-Oct-13 06:31N 27°56' W 082°26'0 0.0
2017-Oct-13 06:00N 27°56' W 082°26'0 0.0
2017-Oct-13 05:31N 27°56' W 082°26'0 0.0
2017-Oct-13 05:00N 27°56' W 082°26'0 0.0
2017-Oct-13 04:31N 27°56' W 082°26'0 0.0
2017-Oct-13 04:01N 27°56' W 082°26'0 0.0
2017-Oct-13 03:30N 27°56' W 082°26'0 0.0
2017-Oct-13 03:01N 27°56' W 082°26'0 0.0
2017-Oct-13 02:31N 27°56' W 082°26'0 0.0
2017-Oct-13 02:00N 27°56' W 082°26'0 0.0
2017-Oct-13 01:30N 27°56' W 082°26'0 0.0
2017-Oct-13 01:01N 27°56' W 082°26'0 0.0
2017-Oct-13 00:31N 27°56' W 082°26'0 0.0
2017-Oct-13 00:01N 27°56' W 082°26'0 0.0
2017-Oct-12 23:30N 27°56' W 082°26'0 0.0
2017-Oct-12 23:00N 27°56' W 082°26'1 2.2
2017-Oct-12 22:30N 27°55' W 082°27'0 0.0
2017-Oct-12 22:01N 27°55' W 082°27'0 0.1
2017-Oct-12 21:31N 27°55' W 082°27'1 2.0
2017-Oct-12 21:01N 27°56' W 082°27'0 0.0
2017-Oct-12 20:31N 27°56' W 082°27'1 1.1
2017-Oct-12 20:00N 27°55' W 082°27'2 4.7
2017-Oct-12 19:31N 27°53' W 082°26'1 2.3
2017-Oct-12 19:01N 27°54' W 082°26'2 3.5
2017-Oct-12 18:31N 27°56' W 082°26'0 0.0
2017-Oct-12 18:01N 27°56' W 082°26'0 0.0
2017-Oct-12 17:30N 27°56' W 082°26'0 0.0
2017-Oct-12 17:01N 27°56' W 082°26'0 0.0
2017-Oct-12 16:31N 27°56' W 082°26'0 0.0
2017-Oct-12 16:00N 27°56' W 082°26'0 0.0
2017-Oct-12 15:31N 27°56' W 082°26'0 0.0
2017-Oct-12 15:01N 27°56' W 082°26'0 0.0
2017-Oct-12 14:31N 27°56' W 082°26'0 0.0
2017-Oct-12 14:01N 27°56' W 082°26'0 0.0
2017-Oct-12 13:30N 27°56' W 082°26'0 0.0
2017-Oct-12 13:00N 27°56' W 082°26'0 0.0
2017-Oct-12 12:31N 27°56' W 082°26'0 0.0
2017-Oct-12 12:00N 27°56' W 082°26'0 0.0
2017-Oct-12 11:31N 27°56' W 082°26'0 0.0
2017-Oct-12 11:00N 27°56' W 082°26'0 0.0
2017-Oct-12 10:31N 27°56' W 082°26'0 0.0
2017-Oct-12 10:00N 27°56' W 082°26'0 0.0
2017-Oct-12 09:30N 27°56' W 082°26'0 0.0
2017-Oct-12 09:00N 27°56' W 082°26'0 0.0
2017-Oct-12 08:30N 27°56' W 082°26'0 0.0
2017-Oct-12 08:01N 27°56' W 082°26'0 0.0
2017-Oct-12 07:31N 27°56' W 082°26'0 0.0
2017-Oct-12 07:01N 27°56' W 082°26'0 0.0
2017-Oct-12 06:31N 27°56' W 082°26'0 0.0
2017-Oct-12 06:01N 27°56' W 082°26'0 0.0
2017-Oct-12 05:31N 27°56' W 082°26'0 0.0
2017-Oct-12 05:00N 27°56' W 082°26'0 0.0
2017-Oct-12 04:31N 27°56' W 082°26'0 0.0
2017-Oct-12 04:00N 27°56' W 082°26'0 0.0
2017-Oct-12 03:31N 27°56' W 082°26'0 0.0
2017-Oct-12 03:01N 27°56' W 082°26'0 0.0
2017-Oct-12 02:31N 27°56' W 082°26'1 2.0
2017-Oct-12 02:01N 27°55' W 082°27'0 0.4
2017-Oct-12 01:31N 27°55' W 082°27'2 3.8
2017-Oct-12 01:01N 27°53' W 082°26'3 5.4
2017-Oct-12 00:31N 27°56' W 082°26'0 1.0
2017-Oct-12 00:01N 27°56' W 082°26'0 0.0
2017-Oct-11 23:31N 27°56' W 082°26'0 0.0
2017-Oct-11 23:00N 27°56' W 082°26'0 0.0
2017-Oct-11 22:30N 27°56' W 082°26'0 0.0
2017-Oct-11 22:01N 27°56' W 082°26'0 0.0
2017-Oct-11 21:31N 27°56' W 082°26'0 0.0
2017-Oct-11 21:01N 27°56' W 082°26'0 0.0
2017-Oct-11 20:31N 27°56' W 082°26'0 0.0
2017-Oct-11 20:01N 27°56' W 082°26'0 0.0
2017-Oct-11 19:31N 27°56' W 082°26'0 0.0
2017-Oct-11 19:00N 27°56' W 082°26'0 0.0
2017-Oct-11 18:31N 27°56' W 082°26'0 0.0
2017-Oct-11 18:01N 27°56' W 082°26'0 0.0
2017-Oct-11 17:31N 27°56' W 082°26'0 0.0
2017-Oct-11 17:00N 27°56' W 082°26'9 0.5
2017-Oct-11 00:00N 27°51' W 082°34'4 8.5
2017-Oct-10 23:31N 27°47' W 082°31'510.3
2017-Oct-10 23:00N 27°51' W 082°27'510.6
2017-Oct-10 22:31N 27°56' W 082°26'0 0.5
2017-Oct-10 22:01N 27°56' W 082°26'0 0.0
2017-Oct-10 21:31N 27°56' W 082°26'0 0.0
2017-Oct-10 21:01N 27°56' W 082°26'0 0.0
2017-Oct-10 20:30N 27°56' W 082°26'0 0.0
2017-Oct-10 20:01N 27°56' W 082°26'0 0.0
2017-Oct-10 19:31N 27°56' W 082°26'0 0.0
2017-Oct-10 19:01N 27°56' W 082°26'0 0.0
2017-Oct-10 18:31N 27°56' W 082°26'0 0.0
2017-Oct-10 18:01N 27°56' W 082°26'0 0.0
2017-Oct-10 17:30N 27°56' W 082°26'0 0.0
2017-Oct-10 17:01N 27°56' W 082°26'0 0.0
2017-Oct-10 16:31N 27°56' W 082°26'  

Dump ship's entire track history